Hansa Rendsburg — A8CF4 — position and weather

sailwx.info

Track history (hours):
 
Tides and Currents Weather Stations Pressure Air Temp Water Temp Dewpoint Dewpoint Depression Visibility Wind Speed Wind Dir Waves Ship Positions

Hansa Rendsburg

Last reported at 2017-Dec-15 23:32 UTC. Time now 2017-Dec-16 22:35 UTC.
Position N 08°27' W 013°28'.

Type: Cargo ship. MMSI: 636090636.

Date/timePositionNaut miles runAvg speedWind from/ knotsBaromVisibWave heightAir tempDewpointWater temp
2017-Dec-15 23:32N 08°27' W 013°28'0 0.1
2017-Dec-15 23:29N 08°27' W 013°28'32 2.6
2017-Dec-15 11:26N 08°56' W 013°41'510.8
2017-Dec-15 11:00N 09°01' W 013°42'1911.1
2017-Dec-15 09:15N 09°20' W 013°43'311.2
2017-Dec-15 09:01N 09°23' W 013°43'510.8
2017-Dec-15 08:31N 09°28' W 013°44'2 4.9
2017-Dec-15 08:01N 09°31' W 013°43'0 0.1
2017-Dec-15 07:30N 09°31' W 013°43'0 0.0
2017-Dec-15 07:01N 09°31' W 013°43'0 0.0
2017-Dec-15 06:31N 09°31' W 013°43'0 0.0
2017-Dec-15 06:01N 09°31' W 013°43'0 0.0
2017-Dec-15 05:31N 09°31' W 013°43'0 0.0
2017-Dec-15 05:01N 09°31' W 013°43'0 0.0
2017-Dec-15 04:31N 09°31' W 013°43'0 0.0
2017-Dec-15 04:01N 09°31' W 013°43'0 0.0
2017-Dec-15 02:31N 09°31' W 013°43'0 0.0
2017-Dec-15 01:01N 09°31' W 013°43'0 0.0
2017-Dec-15 00:31N 09°31' W 013°43'0 0.0
2017-Dec-14 18:31N 09°31' W 013°43'0 0.0
2017-Dec-14 18:00N 09°31' W 013°43'0 0.0
2017-Dec-14 17:31N 09°31' W 013°43'1 1.6
2017-Dec-14 17:01N 09°30' W 013°44'2 3.2
2017-Dec-14 16:31N 09°28' W 013°43'4 8.5
2017-Dec-14 16:00N 09°24' W 013°43'10 9.9
2017-Dec-14 15:01N 09°20' W 013°52'713.7
2017-Dec-14 14:31N 09°20' W 013°59'713.6
2017-Dec-14 14:01N 09°22' W 014°06'713.8
2017-Dec-14 13:31N 09°23' W 014°13'713.6
2017-Dec-14 13:01N 09°25' W 014°19'713.5
2017-Dec-14 12:30N 09°27' W 014°26'713.4
2017-Dec-14 12:00N 09°29' W 014°32'713.5
2017-Dec-14 11:28N 09°31' W 014°39'1013.4
2017-Dec-14 10:42N 09°33' W 014°49'313.4
2017-Dec-14 10:27N 09°34' W 014°53'  
2017-Dec-10 19:35N 27°38' W 013°36'315.9
2017-Dec-10 19:22N 27°41' W 013°34'12215.7
2017-Dec-10 11:34N 29°21' W 012°14'215.5
2017-Dec-10 11:27N 29°22' W 012°13'715.6
2017-Dec-10 11:00N 29°28' W 012°08'815.7
2017-Dec-10 10:30N 29°34' W 012°03'815.5
2017-Dec-10 10:00N 29°41' W 011°58'915.2
2017-Dec-10 09:24N 29°48' W 011°52'  
Track history (hours):
 
Tides and Currents Weather Stations Pressure Air Temp Water Temp Dewpoint Dewpoint Depression Visibility Wind Speed Wind Dir Waves Ship Positions

Hansa Rendsburg

Last reported at 2017-Dec-15 23:32 UTC. Time now 2017-Dec-16 22:35 UTC.
Position N 08°27' W 013°28'.

Type: Cargo ship. MMSI: 636090636.

Date/timePositionNaut miles runAvg speedWind from/ knotsBaromVisibWave heightAir tempDewpointWater temp
2017-Dec-15 23:32N 08°27' W 013°28'0 0.1
2017-Dec-15 23:29N 08°27' W 013°28'32 2.6
2017-Dec-15 11:26N 08°56' W 013°41'510.8
2017-Dec-15 11:00N 09°01' W 013°42'1911.1
2017-Dec-15 09:15N 09°20' W 013°43'311.2
2017-Dec-15 09:01N 09°23' W 013°43'510.8
2017-Dec-15 08:31N 09°28' W 013°44'2 4.9
2017-Dec-15 08:01N 09°31' W 013°43'0 0.1
2017-Dec-15 07:30N 09°31' W 013°43'0 0.0
2017-Dec-15 07:01N 09°31' W 013°43'0 0.0
2017-Dec-15 06:31N 09°31' W 013°43'0 0.0
2017-Dec-15 06:01N 09°31' W 013°43'0 0.0
2017-Dec-15 05:31N 09°31' W 013°43'0 0.0
2017-Dec-15 05:01N 09°31' W 013°43'0 0.0
2017-Dec-15 04:31N 09°31' W 013°43'0 0.0
2017-Dec-15 04:01N 09°31' W 013°43'0 0.0
2017-Dec-15 02:31N 09°31' W 013°43'0 0.0
2017-Dec-15 01:01N 09°31' W 013°43'0 0.0
2017-Dec-15 00:31N 09°31' W 013°43'0 0.0
2017-Dec-14 18:31N 09°31' W 013°43'0 0.0
2017-Dec-14 18:00N 09°31' W 013°43'0 0.0
2017-Dec-14 17:31N 09°31' W 013°43'1 1.6
2017-Dec-14 17:01N 09°30' W 013°44'2 3.2
2017-Dec-14 16:31N 09°28' W 013°43'4 8.5
2017-Dec-14 16:00N 09°24' W 013°43'10 9.9
2017-Dec-14 15:01N 09°20' W 013°52'713.7
2017-Dec-14 14:31N 09°20' W 013°59'713.6
2017-Dec-14 14:01N 09°22' W 014°06'713.8
2017-Dec-14 13:31N 09°23' W 014°13'713.6
2017-Dec-14 13:01N 09°25' W 014°19'713.5
2017-Dec-14 12:30N 09°27' W 014°26'713.4
2017-Dec-14 12:00N 09°29' W 014°32'713.5
2017-Dec-14 11:28N 09°31' W 014°39'1013.4
2017-Dec-14 10:42N 09°33' W 014°49'313.4
2017-Dec-14 10:27N 09°34' W 014°53'  
2017-Dec-10 19:35N 27°38' W 013°36'315.9
2017-Dec-10 19:22N 27°41' W 013°34'12215.7
2017-Dec-10 11:34N 29°21' W 012°14'215.5
2017-Dec-10 11:27N 29°22' W 012°13'715.6
2017-Dec-10 11:00N 29°28' W 012°08'815.7
2017-Dec-10 10:30N 29°34' W 012°03'815.5
2017-Dec-10 10:00N 29°41' W 011°58'915.2
2017-Dec-10 09:24N 29°48' W 011°52'  

Dump ship's entire track history